SBKPSBCT

Guest
Details From SBKP - Sao Paulo Viracopos
To SBCT - Afonso Pena
Flight Number -
Tags decoded
Created
Modified
Stats Distance 189 nm / 349 km
Max Altitude 0 ft / 0 m
Waypoints 3
Social Downloads 0
Likes 0
Share VATSIM

Download

Looking for another format? Having issues loading an existing format? Contact us
Advertisement - Login to hide

Notes

Requested: SBKP PREGO UA310 SBCT Unmatched points: UA310

Route

SBKP PREGO SBCT

ID Type Via Altitude Latitude Longitude Leg Dist Tot Dist Heading (true) Name
O SBKP APT - 0 ft / 0 m -23.00738˚ -47.13452˚ - 0 nm - Sao Paulo Viracopos
PREGO FIX - 0 ft / 0 m -23.30183˚ -47.27533˚ 19 nm 19 nm 204° / 204° -
O SBCT APT - 0 ft / 0 m -25.52888˚ -49.17306˚ 169 nm 188 nm 217° / 218° Afonso Pena

Altitude Profile

Advertisement - Login to hide

Weather


0- 5 10 15 20 25 30 35+ Temperature / ° C

Clouds and Precipitation
Forecast for 2018-05-22 06:00 UTC. Updated 2 hours ago

Ground ~20,000 ft ~40,000 ft Winds

SBKP

Details ICAO SBKP (VCP)
Name Sao Paulo Viracopos
Region Brazil
Timezone America/Sao_Paulo (UTC-3.0)
Stats Elevation 2,170 ft / 661 m (AMSL)
Location -23.007383° -47.134522°
Runways 1
Magnetic Variation 21.248° W

METAR

SBKP 220700Z 13008KT CAVOK 10/07 Q1020

Decode

TAF

TAF SBKP 220000Z 2206/2306 12005KT CAVOK TN08/2209Z TX23/2217Z BECMG 2208/2210 06005KT BECMG 2212/2214 30005KT BECMG 2218/2220 16005KT BECMG 2300/2302 12010KT RMK PGH

Decode

Departure Runways

ID Width Length Bearing (true) Bearing (mag) Surface Threshold Offset Overrun Length
15 148 ft / 45 m 10,639 ft / 3,243 m 127.91° 149.16° Asphalt 0 ft / 0 m 205 ft / 62 m
33 148 ft / 45 m 10,639 ft / 3,243 m 307.90° 329.15° Asphalt 0 ft / 0 m 205 ft / 62 m

SBCT

Details ICAO SBCT (CWB)
Name Afonso Pena
Region Brazil
Timezone America/Sao_Paulo (UTC-3.0)
Stats Elevation 2,988 ft / 911 m (AMSL)
Location -25.528885° -49.173062°
Runways 2
Magnetic Variation 19.674° W

METAR

SBCT 220700Z 00000KT 9000 NSC 05/05 Q1020

Decode

TAF

TAF SBCT 220300Z 2206/2306 08005KT CAVOK TN06/2209Z TX20/2218Z PROB40 2208/2210 4000 BR FEW002 BECMG 2212/2214 31005KT BECMG 2222/2224 07005KT 9999 BKN008 RMK PDJ

Decode

Destination Runways

ID Width Length Bearing (true) Bearing (mag) Surface Threshold Offset Overrun Length
11 148 ft / 45 m 5,909 ft / 1,801 m 91.79° 111.46° Asphalt 0 ft / 0 m 0 ft / 0 m
15 148 ft / 45 m 7,290 ft / 2,222 m 134.76° 154.43° Asphalt 0 ft / 0 m 190 ft / 58 m
29 148 ft / 45 m 5,909 ft / 1,801 m 271.78° 291.45° Asphalt 0 ft / 0 m 0 ft / 0 m
33 148 ft / 45 m 7,290 ft / 2,222 m 314.75° 334.42° Asphalt 0 ft / 0 m 185 ft / 56 m

Approach Navaids

Runway Type Ident Frequency Range Bearing (true) Bearing (mag) Slope Elevation
15 Localiser ICT 109.30 MHz 18 nm / 33 km 134.93° 154.60° - 2,990 ft / 911 m (AMSL)
15 Glidescope ICT 109.30 MHz 10 nm / 19 km 134.75° 154.43° 3.04° 2,990 ft / 911 m (AMSL)

Popular Alternatives